sensor_id;sensor_type;location;lat;lon;timestamp;temperature;humidity
1812;DHT22;904;47.814;11.134;2023-06-10T00:00:18;16.50;72.40
1812;DHT22;904;47.814;11.134;2023-06-10T00:02:46;16.40;72.40
1812;DHT22;904;47.814;11.134;2023-06-10T00:05:13;16.40;72.40
1812;DHT22;904;47.814;11.134;2023-06-10T00:07:42;16.30;72.10
1812;DHT22;904;47.814;11.134;2023-06-10T00:10:09;16.30;72.60
1812;DHT22;904;47.814;11.134;2023-06-10T00:12:38;16.30;72.80
1812;DHT22;904;47.814;11.134;2023-06-10T00:15:07;16.30;73.00
1812;DHT22;904;47.814;11.134;2023-06-10T00:17:34;16.20;73.30
1812;DHT22;904;47.814;11.134;2023-06-10T00:20:06;16.20;73.90
1812;DHT22;904;47.814;11.134;2023-06-10T00:22:34;16.10;74.00
1812;DHT22;904;47.814;11.134;2023-06-10T00:25:01;16.20;73.50
1812;DHT22;904;47.814;11.134;2023-06-10T00:27:29;16.10;73.70
1812;DHT22;904;47.814;11.134;2023-06-10T00:30:02;16.00;74.50
1812;DHT22;904;47.814;11.134;2023-06-10T00:32:32;15.90;75.40
1812;DHT22;904;47.814;11.134;2023-06-10T00:34:59;15.90;75.30
1812;DHT22;904;47.814;11.134;2023-06-10T00:37:26;15.90;75.40
1812;DHT22;904;47.814;11.134;2023-06-10T00:39:54;15.90;75.40
1812;DHT22;904;47.814;11.134;2023-06-10T00:42:21;15.80;75.70
1812;DHT22;904;47.814;11.134;2023-06-10T00:44:49;15.80;76.20
1812;DHT22;904;47.814;11.134;2023-06-10T00:47:18;15.80;76.60
1812;DHT22;904;47.814;11.134;2023-06-10T00:49:46;15.80;75.40
1812;DHT22;904;47.814;11.134;2023-06-10T00:52:14;15.70;75.50
1812;DHT22;904;47.814;11.134;2023-06-10T00:54:43;15.70;76.20
1812;DHT22;904;47.814;11.134;2023-06-10T00:57:10;15.70;76.20
1812;DHT22;904;47.814;11.134;2023-06-10T00:59:39;15.70;75.90
1812;DHT22;904;47.814;11.134;2023-06-10T01:02:06;15.60;76.20
1812;DHT22;904;47.814;11.134;2023-06-10T01:04:36;15.60;76.30
1812;DHT22;904;47.814;11.134;2023-06-10T01:07:13;15.60;76.50
1812;DHT22;904;47.814;11.134;2023-06-10T01:09:47;15.60;76.60
1812;DHT22;904;47.814;11.134;2023-06-10T01:12:20;15.50;76.90
1812;DHT22;904;47.814;11.134;2023-06-10T01:14:52;15.50;76.90
1812;DHT22;904;47.814;11.134;2023-06-10T01:17:20;15.50;76.90
1812;DHT22;904;47.814;11.134;2023-06-10T01:19:54;15.50;76.30
1812;DHT22;904;47.814;11.134;2023-06-10T01:22:25;15.40;76.70
1812;DHT22;904;47.814;11.134;2023-06-10T01:24:54;15.30;77.30
1812;DHT22;904;47.814;11.134;2023-06-10T01:27:27;15.30;77.30
1812;DHT22;904;47.814;11.134;2023-06-10T01:29:59;15.20;77.70
1812;DHT22;904;47.814;11.134;2023-06-10T01:32:33;15.20;78.10
1812;DHT22;904;47.814;11.134;2023-06-10T01:35:02;15.30;78.40
1812;DHT22;904;47.814;11.134;2023-06-10T01:37:31;15.30;78.10
1812;DHT22;904;47.814;11.134;2023-06-10T01:40:01;15.20;77.70
1812;DHT22;904;47.814;11.134;2023-06-10T01:42:31;15.20;77.60
1812;DHT22;904;47.814;11.134;2023-06-10T01:44:59;15.20;78.80
1812;DHT22;904;47.814;11.134;2023-06-10T01:47:26;15.20;79.20
1812;DHT22;904;47.814;11.134;2023-06-10T01:49:53;15.20;79.30
1812;DHT22;904;47.814;11.134;2023-06-10T01:52:20;15.20;79.30
1812;DHT22;904;47.814;11.134;2023-06-10T01:54:48;15.20;78.80
1812;DHT22;904;47.814;11.134;2023-06-10T01:57:15;15.20;78.30
1812;DHT22;904;47.814;11.134;2023-06-10T01:59:42;15.10;79.30
1812;DHT22;904;47.814;11.134;2023-06-10T02:02:10;15.10;79.30
1812;DHT22;904;47.814;11.134;2023-06-10T02:04:37;15.10;78.70
1812;DHT22;904;47.814;11.134;2023-06-10T02:07:04;15.00;79.20
1812;DHT22;904;47.814;11.134;2023-06-10T02:09:32;14.90;79.20
1812;DHT22;904;47.814;11.134;2023-06-10T02:12:02;14.80;80.00
1812;DHT22;904;47.814;11.134;2023-06-10T02:14:31;14.80;80.00
1812;DHT22;904;47.814;11.134;2023-06-10T02:16:59;14.70;79.40
1812;DHT22;904;47.814;11.134;2023-06-10T02:19:26;14.60;80.00
1812;DHT22;904;47.814;11.134;2023-06-10T02:21:53;14.60;81.10
1812;DHT22;904;47.814;11.134;2023-06-10T02:24:20;14.60;81.90
1812;DHT22;904;47.814;11.134;2023-06-10T02:26:47;14.60;82.00
1812;DHT22;904;47.814;11.134;2023-06-10T02:29:18;14.60;80.30
1812;DHT22;904;47.814;11.134;2023-06-10T02:31:45;14.60;80.00
1812;DHT22;904;47.814;11.134;2023-06-10T02:34:13;14.50;80.50
1812;DHT22;904;47.814;11.134;2023-06-10T02:36:41;14.50;81.30
1812;DHT22;904;47.814;11.134;2023-06-10T02:39:08;14.50;81.50
1812;DHT22;904;47.814;11.134;2023-06-10T02:41:35;14.40;81.50
1812;DHT22;904;47.814;11.134;2023-06-10T02:44:02;14.40;82.30
1812;DHT22;904;47.814;11.134;2023-06-10T02:46:31;14.30;81.80
1812;DHT22;904;47.814;11.134;2023-06-10T02:48:58;14.30;82.20
1812;DHT22;904;47.814;11.134;2023-06-10T02:51:25;14.30;82.60
1812;DHT22;904;47.814;11.134;2023-06-10T02:53:52;14.30;83.00
1812;DHT22;904;47.814;11.134;2023-06-10T02:56:19;14.30;82.20
1812;DHT22;904;47.814;11.134;2023-06-10T02:58:47;14.20;82.40
1812;DHT22;904;47.814;11.134;2023-06-10T03:01:15;14.20;82.20
1812;DHT22;904;47.814;11.134;2023-06-10T03:03:44;14.20;83.00
1812;DHT22;904;47.814;11.134;2023-06-10T03:06:12;14.20;83.50
1812;DHT22;904;47.814;11.134;2023-06-10T03:08:39;14.10;84.00
